Time;durP1;ratioP1;P1;durP2;ratioP2;P2;SDS_P1;SDS_P2;PMS_P1;PMS_P2;Temp;Humidity;BMP_temperature;BMP_pressure;BME280_temperature;BME280_humidity;BME280_pressure;Samples;Min_cycle;Max_cycle;Signal;HPM_P1;HPM_P2
2021/08/07 00:00:14;;;;;;;8.38;3.50;;;;;;;;;;6301332;22;20162;-36
2021/08/07 00:02:39;;;;;;;2.85;2.25;;;;;;;;;;6301351;22;19995;-40
2021/08/07 00:05:05;;;;;;;5.25;2.60;;;;;;;;;;6301118;22;20006;-40
2021/08/07 00:07:31;;;;;;;9.10;2.85;;;;;;;;;;6300781;22;19998;-38
2021/08/07 00:09:56;;;;;;;4.63;2.22;;;;;;;;;;6301288;22;19991;-37
2021/08/07 00:12:21;;;;;;;5.15;3.83;;;;;;;;;;6300437;22;20052;-38
2021/08/07 00:14:47;;;;;;;3.83;2.70;;;;;;;;;;6301045;22;20038;-37
2021/08/07 00:17:12;;;;;;;3.90;3.15;;;;;;;;;;6301229;22;20011;-38
2021/08/07 00:19:37;;;;;;;6.25;3.15;;;;;;;;;;6301087;22;20060;-40
2021/08/07 00:22:03;;;;;;;6.15;2.42;;;;;;;;;;6300605;22;20019;-38
2021/08/07 00:24:29;;;;;;;6.65;2.70;;;;;;;;;;6301293;22;19999;-40
2021/08/07 00:26:54;;;;;;;3.45;2.30;;;;;;;;;;6301399;22;20463;-39
2021/08/07 00:29:19;;;;;;;2.72;2.08;;;;;;;;;;6300946;22;20013;-39
2021/08/07 00:31:45;;;;;;;2.78;2.30;;;;;;;;;;6300758;22;20409;-38
2021/08/07 00:34:10;;;;;;;6.07;3.08;;;;;;;;;;6300284;22;20024;-35
2021/08/07 00:36:35;;;;;;;9.65;3.05;;;;;;;;;;6301127;22;20004;-40
2021/08/07 00:39:01;;;;;;;2.88;2.38;;;;;;;;;;6300856;22;20006;-39
2021/08/07 00:41:26;;;;;;;6.68;2.65;;;;;;;;;;6301902;22;20340;-39
2021/08/07 00:43:51;;;;;;;6.88;2.00;;;;;;;;;;6302816;22;20021;-38
2021/08/07 00:46:17;;;;;;;7.78;2.80;;;;;;;;;;6303408;22;20457;-35
2021/08/07 00:48:42;;;;;;;2.58;1.60;;;;;;;;;;6303088;22;20414;-38
2021/08/07 00:51:07;;;;;;;3.03;2.03;;;;;;;;;;6303011;22;20002;-40
2021/08/07 00:53:33;;;;;;;3.30;2.03;;;;;;;;;;6302913;22;20021;-36
2021/08/07 00:55:58;;;;;;;3.33;1.95;;;;;;;;;;6303019;22;19999;-40
2021/08/07 00:58:23;;;;;;;2.90;1.60;;;;;;;;;;6302867;22;19999;-37
2021/08/07 01:00:48;;;;;;;8.95;2.38;;;;;;;;;;6302712;22;20006;-38
2021/08/07 01:03:34;;;;;;;3.40;2.13;;;;;;;;;;6302841;22;19999;-39
2021/08/07 01:06:11;;;;;;;7.72;2.53;;;;;;;;;;6303132;22;20003;-39
2021/08/07 01:08:38;;;;;;;5.68;2.65;;;;;;;;;;6302861;22;20046;-38
2021/08/07 01:11:22;;;;;;;3.17;2.22;;;;;;;;;;6302770;22;20457;-41
2021/08/07 01:13:49;;;;;;;2.35;1.48;;;;;;;;;;6302542;22;20444;-38
2021/08/07 01:16:26;;;;;;;7.38;2.67;;;;;;;;;;6302402;22;19995;-40
2021/08/07 01:18:51;;;;;;;2.20;1.58;;;;;;;;;;6302776;22;19999;-39
2021/08/07 01:21:18;;;;;;;9.98;2.17;;;;;;;;;;6302128;22;20012;-40
2021/08/07 01:23:51;;;;;;;15.57;2.58;;;;;;;;;;6303086;22;20000;-41
2021/08/07 01:26:35;;;;;;;13.63;2.85;;;;;;;;;;6302278;22;20031;-41
2021/08/07 01:29:01;;;;;;;2.45;1.20;;;;;;;;;;6302862;22;20249;-40
2021/08/07 01:31:27;;;;;;;6.55;1.80;;;;;;;;;;6301395;22;20409;-40
2021/08/07 01:33:52;;;;;;;8.70;1.65;;;;;;;;;;6302370;22;20376;-38
2021/08/07 01:36:18;;;;;;;3.50;2.13;;;;;;;;;;6302745;22;19999;-38
2021/08/07 01:38:44;;;;;;;8.27;2.03;;;;;;;;;;6302696;22;19999;-36
2021/08/07 01:41:19;;;;;;;3.50;2.17;;;;;;;;;;6302425;22;19999;-38
2021/08/07 01:43:45;;;;;;;2.95;1.88;;;;;;;;;;6302401;22;20057;-39
2021/08/07 01:46:14;;;;;;;5.45;3.00;;;;;;;;;;6302891;22;19995;-38
2021/08/07 01:48:55;;;;;;;3.28;2.33;;;;;;;;;;6302695;22;20025;-38
2021/08/07 01:51:26;;;;;;;2.78;2.15;;;;;;;;;;6301981;22;20318;-38
2021/08/07 01:53:51;;;;;;;;;;;;;;;;;;6302162;22;20492;-40
2021/08/07 01:56:19;;;;;;;8.90;3.92;;;;;;;;;;6302816;22;19929;-36
2021/08/07 01:58:46;;;;;;;12.90;3.30;;;;;;;;;;6302607;22;20079;-32
2021/08/07 02:01:13;;;;;;;8.73;3.65;;;;;;;;;;6302123;22;20070;-38
2021/08/07 02:03:39;;;;;;;4.60;2.63;;;;;;;;;;6302123;22;20006;-40
2021/08/07 02:06:05;;;;;;;4.63;2.45;;;;;;;;;;6301932;22;20010;-37
2021/08/07 02:08:31;;;;;;;8.32;2.40;;;;;;;;;;6302288;22;19999;-40
2021/08/07 02:10:56;;;;;;;1.70;1.30;;;;;;;;;;6302372;22;19995;-36
2021/08/07 02:13:22;;;;;;;14.10;2.40;;;;;;;;;;6302176;22;20444;-39
2021/08/07 02:15:49;;;;;;;3.75;2.60;;;;;;;;;;6302013;22;20025;-35
2021/08/07 02:18:18;;;;;;;17.40;3.92;;;;;;;;;;6301893;22;20397;-35
2021/08/07 02:20:43;;;;;;;12.13;3.92;;;;;;;;;;6301966;22;20026;-35
2021/08/07 02:23:08;;;;;;;4.50;3.03;;;;;;;;;;6302166;22;20007;-35
2021/08/07 02:25:34;;;;;;;4.47;1.83;;;;;;;;;;6302043;22;20411;-41
2021/08/07 02:28:00;;;;;;;15.57;3.85;;;;;;;;;;6302397;22;20027;-37
2021/08/07 02:30:26;;;;;;;9.05;3.95;;;;;;;;;;6301527;22;20441;-37
2021/08/07 02:32:51;;;;;;;5.60;3.53;;;;;;;;;;6302101;22;19995;-36
2021/08/07 02:35:17;;;;;;;3.65;1.75;;;;;;;;;;6302336;22;20005;-37
2021/08/07 02:37:42;;;;;;;9.00;2.25;;;;;;;;;;6301877;22;20483;-36
2021/08/07 02:40:09;;;;;;;3.33;1.77;;;;;;;;;;6301763;22;20464;-38
2021/08/07 02:42:37;;;;;;;4.80;2.60;;;;;;;;;;6302234;22;20011;-41
2021/08/07 02:45:04;;;;;;;5.20;2.40;;;;;;;;;;6301787;22;20554;-37
2021/08/07 02:47:30;;;;;;;3.95;2.95;;;;;;;;;;6301798;22;19999;-40
2021/08/07 02:49:56;;;;;;;4.30;2.60;;;;;;;;;;6301696;22;19999;-39
2021/08/07 02:52:21;;;;;;;5.63;3.15;;;;;;;;;;6301552;22;20006;-36
2021/08/07 02:54:48;;;;;;;6.60;2.83;;;;;;;;;;6302096;22;20110;-40
2021/08/07 02:57:13;;;;;;;9.68;2.67;;;;;;;;;;6302283;22;20018;-36
2021/08/07 02:59:41;;;;;;;5.72;1.98;;;;;;;;;;6302482;22;20425;-40
2021/08/07 03:02:07;;;;;;;11.43;4.50;;;;;;;;;;6301518;22;20034;-38
2021/08/07 03:04:33;;;;;;;2.47;1.75;;;;;;;;;;6300906;22;20048;-40
2021/08/07 03:06:58;;;;;;;6.47;3.00;;;;;;;;;;6301906;22;19999;-38
2021/08/07 03:09:23;;;;;;;5.82;2.53;;;;;;;;;;6301558;22;20515;-36
2021/08/07 03:11:49;;;;;;;4.50;2.75;;;;;;;;;;6301813;22;19999;-37
2021/08/07 03:14:15;;;;;;;1.80;1.58;;;;;;;;;;6302254;22;20078;-39
2021/08/07 03:16:40;;;;;;;5.22;3.67;;;;;;;;;;6301279;22;20421;-39
2021/08/07 03:19:05;;;;;;;6.05;3.15;;;;;;;;;;6301651;22;20006;-36
2021/08/07 03:21:31;;;;;;;4.30;3.83;;;;;;;;;;6301618;22;20090;-39
2021/08/07 03:23:56;;;;;;;5.47;3.13;;;;;;;;;;6301627;22;19999;-36
2021/08/07 03:26:23;;;;;;;6.97;3.22;;;;;;;;;;6301729;22;19999;-39
2021/08/07 03:28:48;;;;;;;4.10;2.67;;;;;;;;;;6299808;22;20007;-36
2021/08/07 03:31:14;;;;;;;5.68;3.50;;;;;;;;;;6301787;22;20048;-39
2021/08/07 03:33:39;;;;;;;11.50;2.35;;;;;;;;;;6301872;22;20023;-40
2021/08/07 03:36:05;;;;;;;8.70;2.42;;;;;;;;;;6301509;22;20341;-36
2021/08/07 03:38:31;;;;;;;5.35;3.33;;;;;;;;;;6301520;22;19995;-37
2021/08/07 03:40:56;;;;;;;4.60;2.83;;;;;;;;;;6301558;22;20074;-38
2021/08/07 03:43:21;;;;;;;7.80;3.40;;;;;;;;;;6301950;22;20026;-37
2021/08/07 03:45:47;;;;;;;4.95;3.15;;;;;;;;;;6301808;22;20328;-38
2021/08/07 03:48:12;;;;;;;9.27;2.72;;;;;;;;;;6301796;22;20078;-36
2021/08/07 03:50:37;;;;;;;6.05;2.17;;;;;;;;;;6300639;22;20007;-39
2021/08/07 03:53:03;;;;;;;8.75;2.33;;;;;;;;;;6301186;22;19995;-38
2021/08/07 03:55:28;;;;;;;3.47;2.05;;;;;;;;;;6300526;22;19996;-42
2021/08/07 03:57:53;;;;;;;4.95;3.30;;;;;;;;;;6301290;22;20013;-39
2021/08/07 04:00:19;;;;;;;6.00;3.28;;;;;;;;;;6300881;22;20019;-36
2021/08/07 04:02:45;;;;;;;9.80;2.53;;;;;;;;;;6301155;22;20010;-35
2021/08/07 04:05:10;;;;;;;10.82;2.75;;;;;;;;;;6300026;22;20588;-40
2021/08/07 04:07:36;;;;;;;5.90;2.72;;;;;;;;;;6301204;22;20010;-39
2021/08/07 04:10:04;;;;;;;3.92;2.45;;;;;;;;;;6300446;22;20086;-38
2021/08/07 04:12:29;;;;;;;4.43;2.80;;;;;;;;;;6301045;22;20010;-44
2021/08/07 04:14:54;;;;;;;3.90;2.75;;;;;;;;;;6299904;22;20404;-38
2021/08/07 04:17:19;;;;;;;3.80;2.13;;;;;;;;;;6300609;22;20002;-40
2021/08/07 04:19:45;;;;;;;2.75;2.33;;;;;;;;;;6301280;22;20003;-38
2021/08/07 04:22:13;;;;;;;4.55;2.47;;;;;;;;;;6301001;22;20072;-38
2021/08/07 04:24:40;;;;;;;3.75;2.65;;;;;;;;;;6299793;22;20480;-39
2021/08/07 04:27:05;;;;;;;14.88;2.75;;;;;;;;;;6300924;22;20086;-39
2021/08/07 04:29:30;;;;;;;8.30;2.38;;;;;;;;;;6300793;22;20082;-39
2021/08/07 04:31:55;;;;;;;4.60;2.45;;;;;;;;;;6301242;22;19995;-35
2021/08/07 04:34:21;;;;;;;3.10;2.15;;;;;;;;;;6300890;22;20338;-38
2021/08/07 04:36:46;;;;;;;8.90;3.80;;;;;;;;;;6300952;22;20771;-37
2021/08/07 04:39:17;;;;;;;4.22;2.03;;;;;;;;;;6301112;22;20000;-39
2021/08/07 04:41:43;;;;;;;3.58;2.30;;;;;;;;;;6300994;22;20006;-38
2021/08/07 04:44:08;;;;;;;3.67;2.35;;;;;;;;;;6300585;22;20066;-40
2021/08/07 04:46:33;;;;;;;5.50;2.53;;;;;;;;;;6301053;22;19999;-36
2021/08/07 04:49:00;;;;;;;3.60;2.08;;;;;;;;;;6300623;22;19999;-40
2021/08/07 04:51:26;;;;;;;3.65;2.97;;;;;;;;;;6300943;22;20428;-38
2021/08/07 04:53:51;;;;;;;11.52;2.63;;;;;;;;;;6301104;22;20003;-39
2021/08/07 04:56:16;;;;;;;5.65;3.30;;;;;;;;;;6300729;22;20421;-40
2021/08/07 04:58:41;;;;;;;3.55;2.22;;;;;;;;;;6301304;22;20003;-38
2021/08/07 05:01:07;;;;;;;4.38;2.05;;;;;;;;;;6300506;22;20014;-36
2021/08/07 05:03:32;;;;;;;6.72;2.47;;;;;;;;;;6300303;22;20031;-39
2021/08/07 05:05:57;;;;;;;6.10;2.92;;;;;;;;;;6301180;22;20075;-38
2021/08/07 05:08:23;;;;;;;5.00;2.65;;;;;;;;;;6300962;22;20021;-40
2021/08/07 05:10:48;;;;;;;10.05;4.85;;;;;;;;;;6300791;22;20429;-39
2021/08/07 05:13:13;;;;;;;7.30;3.25;;;;;;;;;;6300869;22;20421;-40
2021/08/07 05:15:39;;;;;;;4.88;3.42;;;;;;;;;;6300292;22;19995;-39
2021/08/07 05:18:04;;;;;;;6.30;2.78;;;;;;;;;;6300949;22;20069;-39
2021/08/07 05:20:30;;;;;;;11.88;3.83;;;;;;;;;;6300941;22;20018;-40
2021/08/07 05:22:55;;;;;;;7.82;3.13;;;;;;;;;;6300682;22;20031;-38
2021/08/07 05:25:20;;;;;;;6.30;4.88;;;;;;;;;;6301242;22;20018;-37
2021/08/07 05:27:46;;;;;;;8.70;4.15;;;;;;;;;;6301645;22;19996;-38
2021/08/07 05:30:11;;;;;;;6.40;4.13;;;;;;;;;;6302708;22;19991;-39
2021/08/07 05:32:36;;;;;;;10.50;5.75;;;;;;;;;;6302041;22;20140;-38
2021/08/07 05:35:02;;;;;;;6.55;4.57;;;;;;;;;;6302325;22;20007;-38
2021/08/07 05:37:28;;;;;;;12.88;3.88;;;;;;;;;;6302650;22;19992;-37
2021/08/07 05:39:53;;;;;;;5.00;3.50;;;;;;;;;;6301861;22;20472;-37
2021/08/07 05:42:18;;;;;;;8.30;4.53;;;;;;;;;;6301534;22;20011;-39
2021/08/07 05:44:44;;;;;;;5.03;4.30;;;;;;;;;;6302163;22;19999;-40
2021/08/07 05:47:09;;;;;;;5.40;3.63;;;;;;;;;;6302373;22;20010;-36
2021/08/07 05:49:34;;;;;;;4.20;2.72;;;;;;;;;;6302609;22;20034;-36
2021/08/07 05:51:59;;;;;;;7.30;2.83;;;;;;;;;;6302252;22;19999;-38
2021/08/07 05:54:25;;;;;;;8.07;2.95;;;;;;;;;;6302268;22;20420;-39
2021/08/07 05:56:50;;;;;;;8.73;1.60;;;;;;;;;;6302409;22;20034;-38
2021/08/07 05:59:15;;;;;;;5.50;3.25;;;;;;;;;;6302544;22;20021;-38
2021/08/07 06:01:41;;;;;;;3.40;2.30;;;;;;;;;;6302038;22;19999;-38
2021/08/07 06:04:06;;;;;;;7.63;3.53;;;;;;;;;;6302068;22;20003;-38
2021/08/07 06:06:31;;;;;;;13.85;4.78;;;;;;;;;;6302499;22;20377;-40
2021/08/07 06:08:57;;;;;;;10.15;5.22;;;;;;;;;;6302625;22;20478;-38
2021/08/07 06:11:22;;;;;;;26.38;11.25;;;;;;;;;;6301973;22;20152;-41
2021/08/07 06:13:47;;;;;;;18.33;16.17;;;;;;;;;;6302380;22;19999;-42
2021/08/07 06:16:13;;;;;;;33.47;18.17;;;;;;;;;;6302063;22;20428;-40
2021/08/07 06:18:38;;;;;;;28.88;25.98;;;;;;;;;;6302077;22;19999;-39
2021/08/07 06:21:04;;;;;;;27.85;24.92;;;;;;;;;;6300895;22;20508;-38
2021/08/07 06:23:29;;;;;;;24.98;16.58;;;;;;;;;;6302599;22;20007;-35
2021/08/07 06:25:54;;;;;;;21.73;16.45;;;;;;;;;;6301783;22;20015;-40
2021/08/07 06:28:20;;;;;;;27.70;15.80;;;;;;;;;;6299973;22;20003;-38
2021/08/07 06:30:47;;;;;;;19.08;16.27;;;;;;;;;;6300749;22;20368;-38
2021/08/07 06:33:13;;;;;;;12.15;10.20;;;;;;;;;;6300731;22;20557;-35
2021/08/07 06:35:38;;;;;;;13.38;10.80;;;;;;;;;;6300577;22;20006;-39
2021/08/07 06:38:04;;;;;;;22.83;14.23;;;;;;;;;;6300912;22;19991;-37
2021/08/07 06:40:29;;;;;;;14.30;11.98;;;;;;;;;;6300517;22;19992;-38
2021/08/07 06:42:55;;;;;;;11.82;10.48;;;;;;;;;;6301501;22;20480;-36
2021/08/07 06:45:20;;;;;;;17.67;15.93;;;;;;;;;;6302013;22;20329;-38
2021/08/07 06:47:45;;;;;;;31.63;18.17;;;;;;;;;;6302147;22;19999;-39
2021/08/07 06:50:11;;;;;;;40.80;31.95;;;;;;;;;;6302245;22;20425;-40
2021/08/07 06:52:36;;;;;;;17.08;15.30;;;;;;;;;;6301364;22;20045;-35
2021/08/07 06:55:02;;;;;;;9.23;8.32;;;;;;;;;;6301075;22;20000;-34
2021/08/07 06:57:27;;;;;;;11.70;7.35;;;;;;;;;;6300617;22;20086;-37
2021/08/07 06:59:53;;;;;;;8.32;6.20;;;;;;;;;;6300461;22;20027;-35
2021/08/07 07:02:19;;;;;;;8.27;7.40;;;;;;;;;;6300385;22;20341;-36
2021/08/07 07:04:44;;;;;;;7.60;6.70;;;;;;;;;;6300946;22;20022;-36
2021/08/07 07:07:10;;;;;;;10.05;7.90;;;;;;;;;;6300561;22;20443;-40
2021/08/07 07:09:35;;;;;;;7.93;6.80;;;;;;;;;;6300628;22;20079;-40
2021/08/07 07:12:00;;;;;;;18.63;7.03;;;;;;;;;;6301477;22;20021;-38
2021/08/07 07:14:26;;;;;;;5.63;4.90;;;;;;;;;;6301171;22;20432;-35
2021/08/07 07:16:51;;;;;;;8.38;6.18;;;;;;;;;;6301181;22;20002;-39
2021/08/07 07:19:16;;;;;;;3.70;3.08;;;;;;;;;;6301711;22;19999;-40
2021/08/07 07:21:42;;;;;;;11.00;5.95;;;;;;;;;;6301273;22;20023;-37
2021/08/07 07:24:08;;;;;;;7.25;5.15;;;;;;;;;;6301447;22;20068;-45
2021/08/07 07:26:33;;;;;;;11.77;4.22;;;;;;;;;;6301675;22;20439;-40
2021/08/07 07:28:59;;;;;;;7.35;3.85;;;;;;;;;;6301606;22;20339;-42
2021/08/07 07:31:25;;;;;;;14.63;4.60;;;;;;;;;;6301103;22;20734;-56
2021/08/07 07:33:51;;;;;;;4.10;2.10;;;;;;;;;;6300832;22;19996;-44
2021/08/07 07:36:16;;;;;;;7.78;2.95;;;;;;;;;;6301112;22;20040;-43
2021/08/07 07:38:42;;;;;;;4.75;2.88;;;;;;;;;;6301087;22;19995;-42
2021/08/07 07:41:07;;;;;;;5.13;3.08;;;;;;;;;;6301292;22;20003;-44
2021/08/07 07:43:32;;;;;;;6.63;2.83;;;;;;;;;;6301254;22;20031;-48
2021/08/07 07:45:58;;;;;;;5.90;3.42;;;;;;;;;;6300657;22;20003;-47
2021/08/07 07:48:23;;;;;;;2.55;1.52;;;;;;;;;;6299990;22;20424;-50
2021/08/07 07:50:48;;;;;;;5.78;3.47;;;;;;;;;;6300617;22;20003;-47
2021/08/07 07:53:14;;;;;;;7.13;2.35;;;;;;;;;;6300094;22;19994;-51
2021/08/07 07:55:39;;;;;;;9.45;2.63;;;;;;;;;;6299770;22;20006;-47
2021/08/07 07:58:04;;;;;;;7.22;3.40;;;;;;;;;;6300670;22;20038;-51
2021/08/07 08:00:30;;;;;;;3.58;2.75;;;;;;;;;;6300703;22;20029;-51
2021/08/07 08:02:55;;;;;;;8.60;3.13;;;;;;;;;;6301326;22;20003;-49
2021/08/07 08:05:20;;;;;;;3.83;2.45;;;;;;;;;;6300761;22;20651;-43
2021/08/07 08:07:46;;;;;;;11.45;2.53;;;;;;;;;;6301229;22;20370;-47
2021/08/07 08:10:12;;;;;;;8.60;3.35;;;;;;;;;;6301867;22;20003;-42
2021/08/07 08:12:40;;;;;;;9.18;2.45;;;;;;;;;;6300873;22;20007;-48
2021/08/07 08:15:07;;;;;;;6.00;2.45;;;;;;;;;;6300653;22;20007;-50
2021/08/07 08:17:33;;;;;;;3.63;2.70;;;;;;;;;;6299509;22;20037;-46
2021/08/07 08:19:58;;;;;;;5.57;3.00;;;;;;;;;;6300572;22;20632;-49
2021/08/07 08:22:23;;;;;;;3.58;1.80;;;;;;;;;;6299412;22;20365;-50
2021/08/07 08:24:48;;;;;;;4.82;3.15;;;;;;;;;;6300950;22;20383;-49
2021/08/07 08:27:18;;;;;;;4.20;3.35;;;;;;;;;;6300740;22;20007;-49
2021/08/07 08:29:44;;;;;;;3.22;2.03;;;;;;;;;;6301448;22;19998;-48
2021/08/07 08:32:09;;;;;;;6.13;3.65;;;;;;;;;;6301142;22;20378;-48
2021/08/07 08:34:35;;;;;;;4.55;3.25;;;;;;;;;;6300737;22;20034;-52
2021/08/07 08:37:00;;;;;;;7.00;2.58;;;;;;;;;;6300759;22;19999;-47
2021/08/07 08:39:25;;;;;;;8.73;2.67;;;;;;;;;;6301091;22;20048;-49
2021/08/07 08:41:51;;;;;;;5.45;2.08;;;;;;;;;;6301233;22;20006;-50
2021/08/07 08:44:16;;;;;;;6.10;3.40;;;;;;;;;;6300735;22;20015;-48
2021/08/07 08:46:42;;;;;;;3.03;2.17;;;;;;;;;;6301088;22;20000;-47
2021/08/07 08:49:08;;;;;;;4.75;1.52;;;;;;;;;;6300478;22;20507;-47
2021/08/07 08:51:33;;;;;;;3.53;1.73;;;;;;;;;;6301132;22;19999;-48
2021/08/07 08:53:59;;;;;;;4.88;2.67;;;;;;;;;;6300541;22;19987;-47
2021/08/07 08:56:26;;;;;;;5.68;2.70;;;;;;;;;;6301255;22;20006;-47
2021/08/07 08:58:52;;;;;;;9.38;2.72;;;;;;;;;;6301469;22;19995;-45
2021/08/07 09:01:17;;;;;;;5.82;1.70;;;;;;;;;;6300751;22;20086;-51
2021/08/07 09:03:45;;;;;;;9.48;1.40;;;;;;;;;;6302171;22;20011;-51
2021/08/07 09:06:11;;;;;;;6.53;2.78;;;;;;;;;;6302694;22;20056;-51
2021/08/07 09:08:37;;;;;;;3.22;1.48;;;;;;;;;;6303295;22;20126;-46
2021/08/07 09:11:17;;;;;;;4.03;2.20;;;;;;;;;;6302817;22;20088;-54
2021/08/07 09:13:42;;;;;;;2.30;1.73;;;;;;;;;;6303507;22;20032;-48
2021/08/07 09:16:08;;;;;;;4.72;1.23;;;;;;;;;;6303073;22;20471;-47
2021/08/07 09:18:34;;;;;;;7.32;1.77;;;;;;;;;;6303384;22;20088;-48
2021/08/07 09:21:08;;;;;;;7.97;2.40;;;;;;;;;;6302121;22;20043;-55
2021/08/07 09:23:34;;;;;;;2.08;1.30;;;;;;;;;;6302795;22;20063;-57
2021/08/07 09:26:18;;;;;;;2.05;1.33;;;;;;;;;;6302718;22;20332;-52
2021/08/07 09:28:49;;;;;;;6.82;1.83;;;;;;;;;;6302594;22;20045;-53
2021/08/07 09:31:14;;;;;;;2.50;1.83;;;;;;;;;;6302484;22;19995;-54
2021/08/07 09:33:39;;;;;;;7.55;2.53;;;;;;;;;;6302426;22;20006;-51
2021/08/07 09:36:04;;;;;;;3.90;1.75;;;;;;;;;;6302906;22;20000;-54
2021/08/07 09:38:30;;;;;;;5.32;2.25;;;;;;;;;;6302989;22;19995;-54
2021/08/07 09:41:00;;;;;;;2.50;1.60;;;;;;;;;;6300837;22;20053;-54
2021/08/07 09:43:31;;;;;;;7.77;2.37;;;;;;;;;;6302073;22;19999;-52
2021/08/07 09:46:01;;;;;;;4.53;3.10;;;;;;;;;;6301201;22;19992;-54
2021/08/07 09:48:46;;;;;;;5.07;2.23;;;;;;;;;;6302539;22;20022;-54
2021/08/07 09:51:18;;;;;;;3.30;1.58;;;;;;;;;;6302000;22;20011;-54
2021/08/07 09:53:44;;;;;;;3.60;2.40;;;;;;;;;;6302543;22;20015;-54
2021/08/07 09:56:09;;;;;;;2.75;1.02;;;;;;;;;;6302030;22;20048;-55
2021/08/07 09:58:35;;;;;;;5.88;2.50;;;;;;;;;;6302785;22;20367;-55
2021/08/07 10:01:00;;;;;;;8.48;2.55;;;;;;;;;;6302717;22;20022;-54
2021/08/07 10:03:28;;;;;;;4.93;2.92;;;;;;;;;;6302192;22;20434;-54
2021/08/07 10:05:53;;;;;;;9.45;3.58;;;;;;;;;;6302095;22;20042;-55
2021/08/07 10:08:18;;;;;;;5.20;1.67;;;;;;;;;;6302293;22;19995;-53
2021/08/07 10:10:44;;;;;;;4.47;2.55;;;;;;;;;;6302588;22;20002;-53
2021/08/07 10:13:11;;;;;;;7.93;5.40;;;;;;;;;;6302430;22;20011;-53
2021/08/07 10:15:37;;;;;;;4.72;2.58;;;;;;;;;;6301756;22;20436;-54
2021/08/07 10:18:03;;;;;;;3.00;2.10;;;;;;;;;;6301995;22;19995;-50
2021/08/07 10:20:29;;;;;;;2.95;1.65;;;;;;;;;;6301691;22;20071;-50
2021/08/07 10:22:55;;;;;;;4.05;1.55;;;;;;;;;;6302080;22;20030;-53
2021/08/07 10:25:22;;;;;;;8.15;2.58;;;;;;;;;;6301618;22;20286;-50
2021/08/07 10:27:49;;;;;;;5.20;2.83;;;;;;;;;;6302402;22;20021;-53
2021/08/07 10:30:14;;;;;;;7.90;3.55;;;;;;;;;;6302417;22;19995;-52
2021/08/07 10:32:43;;;;;;;2.83;2.03;;;;;;;;;;6302138;22;20011;-50
2021/08/07 10:35:12;;;;;;;8.90;2.67;;;;;;;;;;6301636;22;20071;-52
2021/08/07 10:37:38;;;;;;;4.45;2.10;;;;;;;;;;6302266;22;20052;-54
2021/08/07 10:40:05;;;;;;;2.08;1.30;;;;;;;;;;6302056;22;20001;-49
2021/08/07 10:42:32;;;;;;;2.78;2.15;;;;;;;;;;6301943;22;20001;-52
2021/08/07 10:44:58;;;;;;;4.05;1.90;;;;;;;;;;6302195;22;19992;-46
2021/08/07 10:47:40;;;;;;;4.80;2.25;;;;;;;;;;6302619;22;20082;-48
2021/08/07 10:50:26;;;;;;;5.65;3.17;;;;;;;;;;6302467;22;20071;-48
2021/08/07 10:52:55;;;;;;;6.28;2.88;;;;;;;;;;6285569;22;20003;-43
2021/08/07 10:55:39;;;;;;;4.03;2.33;;;;;;;;;;6301142;22;20006;-45
2021/08/07 10:58:05;;;;;;;2.67;2.05;;;;;;;;;;6302207;22;20003;-46
2021/08/07 11:00:31;;;;;;;6.38;2.75;;;;;;;;;;6301943;22;20010;-45
2021/08/07 11:03:12;;;;;;;5.60;3.40;;;;;;;;;;6302230;22;20075;-44
2021/08/07 11:05:51;;;;;;;2.90;2.17;;;;;;;;;;6302245;22;19999;-49
2021/08/07 11:08:17;;;;;;;5.50;3.25;;;;;;;;;;6301927;22;20064;-48
2021/08/07 11:10:42;;;;;;;4.65;3.55;;;;;;;;;;6301847;22;19999;-58
2021/08/07 11:13:21;;;;;;;6.43;3.10;;;;;;;;;;6301330;22;20421;-56
2021/08/07 11:15:46;;;;;;;6.63;4.53;;;;;;;;;;6300077;22;20427;-54
2021/08/07 11:18:24;;;;;;;7.65;4.38;;;;;;;;;;6299846;22;20003;-55
2021/08/07 11:20:50;;;;;;;13.20;3.90;;;;;;;;;;6300016;22;20107;-57
2021/08/07 11:23:16;;;;;;;3.15;2.55;;;;;;;;;;6299357;22;20030;-54
2021/08/07 11:25:48;;;;;;;2.47;1.73;;;;;;;;;;6299786;22;19992;-53
2021/08/07 11:28:14;;;;;;;6.05;5.45;;;;;;;;;;6299679;22;20071;-58
2021/08/07 11:30:39;;;;;;;9.05;5.82;;;;;;;;;;6299366;22;20467;-55
2021/08/07 11:33:08;;;;;;;7.57;4.88;;;;;;;;;;6299052;22;19999;-56
2021/08/07 11:35:33;;;;;;;6.97;4.57;;;;;;;;;;6299719;22;20511;-55
2021/08/07 11:38:17;;;;;;;15.68;4.97;;;;;;;;;;6299621;22;20018;-57
2021/08/07 11:40:46;;;;;;;2.83;2.50;;;;;;;;;;6299923;22;20021;-57
2021/08/07 11:43:13;;;;;;;6.00;3.05;;;;;;;;;;6300251;22;20006;-57
2021/08/07 11:45:38;;;;;;;10.65;5.75;;;;;;;;;;6301683;22;20045;-57
2021/08/07 11:48:04;;;;;;;6.72;4.57;;;;;;;;;;6301203;22;20295;-57
2021/08/07 11:50:29;;;;;;;5.82;3.38;;;;;;;;;;6301300;22;20072;-56
2021/08/07 11:52:54;;;;;;;4.30;3.47;;;;;;;;;;6300777;22;20021;-56
2021/08/07 11:55:20;;;;;;;11.02;4.68;;;;;;;;;;6301708;22;19992;-57
2021/08/07 11:57:45;;;;;;;3.97;2.45;;;;;;;;;;6301305;22;19999;-57
2021/08/07 12:00:24;;;;;;;9.40;5.72;;;;;;;;;;6301460;22;20074;-57
2021/08/07 12:02:55;;;;;;;6.65;5.85;;;;;;;;;;6301271;22;20082;-58
2021/08/07 12:05:21;;;;;;;4.50;3.40;;;;;;;;;;6301365;22;20026;-57
2021/08/07 12:07:58;;;;;;;5.55;4.05;;;;;;;;;;6300964;22;20002;-57
2021/08/07 12:10:24;;;;;;;6.65;4.70;;;;;;;;;;6301220;22;20002;-56
2021/08/07 12:12:49;;;;;;;9.27;4.53;;;;;;;;;;6300862;22;20000;-57
2021/08/07 12:15:15;;;;;;;6.82;3.70;;;;;;;;;;6300986;22;20003;-57
2021/08/07 12:17:44;;;;;;;7.13;6.32;;;;;;;;;;6301465;22;20074;-57
2021/08/07 12:20:09;;;;;;;2.50;1.92;;;;;;;;;;6301339;22;20003;-56
2021/08/07 12:22:51;;;;;;;8.52;6.43;;;;;;;;;;6300830;22;20015;-57
2021/08/07 12:25:18;;;;;;;7.53;5.72;;;;;;;;;;6301115;22;20006;-55
2021/08/07 12:27:59;;;;;;;10.52;6.35;;;;;;;;;;6301347;22;20025;-57
2021/08/07 12:30:24;;;;;;;3.40;2.88;;;;;;;;;;6301292;22;20029;-56
2021/08/07 12:33:10;;;;;;;4.88;4.07;;;;;;;;;;6301172;22;20511;-55
2021/08/07 12:35:35;;;;;;;3.83;2.80;;;;;;;;;;6300809;22;19995;-57
2021/08/07 12:38:00;;;;;;;13.27;5.03;;;;;;;;;;6302453;22;19991;-57
2021/08/07 12:40:25;;;;;;;7.50;3.40;;;;;;;;;;6302956;22;20337;-56
2021/08/07 12:42:51;;;;;;;5.20;3.88;;;;;;;;;;6303109;22;20035;-57
2021/08/07 12:45:17;;;;;;;6.43;3.40;;;;;;;;;;6302987;22;20078;-57
2021/08/07 12:47:42;;;;;;;6.85;4.25;;;;;;;;;;6302871;22;19998;-57
2021/08/07 12:50:19;;;;;;;7.82;5.25;;;;;;;;;;6303224;22;20003;-57
2021/08/07 12:52:58;;;;;;;5.60;4.97;;;;;;;;;;6303349;22;20341;-56
2021/08/07 12:55:27;;;;;;;4.35;3.95;;;;;;;;;;6303696;22;20000;-57
2021/08/07 12:58:09;;;;;;;5.87;5.00;;;;;;;;;;6302813;22;20003;-58
2021/08/07 13:00:34;;;;;;;3.53;2.30;;;;;;;;;;6303028;22;20283;-56
2021/08/07 13:03:06;;;;;;;3.92;3.17;;;;;;;;;;6302973;22;20003;-55
2021/08/07 13:05:33;;;;;;;8.10;5.70;;;;;;;;;;6302442;22;19999;-56
2021/08/07 13:07:58;;;;;;;7.35;6.45;;;;;;;;;;6303189;22;20082;-57
2021/08/07 13:10:29;;;;;;;10.65;3.67;;;;;;;;;;6301885;22;20407;-57
2021/08/07 13:12:55;;;;;;;8.57;4.47;;;;;;;;;;6302544;22;20460;-57
2021/08/07 13:15:21;;;;;;;5.80;3.17;;;;;;;;;;6302919;22;20636;-55
2021/08/07 13:17:51;;;;;;;7.68;4.13;;;;;;;;;;6303003;22;20420;-57
2021/08/07 13:20:35;;;;;;;4.47;4.05;;;;;;;;;;6302354;22;20106;-57
2021/08/07 13:23:00;;;;;;;5.50;3.85;;;;;;;;;;6302997;22;20015;-49
2021/08/07 13:25:27;;;;;;;10.57;6.47;;;;;;;;;;6302513;22;20038;-55
2021/08/07 13:27:53;;;;;;;6.72;4.70;;;;;;;;;;6302633;22;19999;-50
2021/08/07 13:30:19;;;;;;;5.47;4.88;;;;;;;;;;6302387;22;20640;-51
2021/08/07 13:32:45;;;;;;;6.70;3.55;;;;;;;;;;6302630;22;19999;-54
2021/08/07 13:35:12;;;;;;;6.15;5.07;;;;;;;;;;6302455;22;20006;-54
2021/08/07 13:37:38;;;;;;;6.03;5.43;;;;;;;;;;6302688;22;20025;-56
2021/08/07 13:40:04;;;;;;;10.80;4.07;;;;;;;;;;6302529;22;19994;-53
2021/08/07 13:42:29;;;;;;;10.10;4.68;;;;;;;;;;6302732;22;20003;-53
2021/08/07 13:44:55;;;;;;;5.28;3.63;;;;;;;;;;6302430;22;20007;-55
2021/08/07 13:47:21;;;;;;;3.17;2.78;;;;;;;;;;6302849;22;20007;-54
2021/08/07 13:49:47;;;;;;;13.73;3.20;;;;;;;;;;6302229;22;20022;-55
2021/08/07 13:52:13;;;;;;;5.13;3.10;;;;;;;;;;6302185;22;20002;-57
2021/08/07 13:54:38;;;;;;;9.00;4.22;;;;;;;;;;6302320;22;19996;-55
2021/08/07 13:57:07;;;;;;;5.35;3.00;;;;;;;;;;6302693;22;20073;-56
2021/08/07 13:59:33;;;;;;;4.88;2.95;;;;;;;;;;6302477;22;19999;-57
2021/08/07 14:01:59;;;;;;;4.18;3.00;;;;;;;;;;6302373;22;20009;-56
2021/08/07 14:04:24;;;;;;;5.20;2.40;;;;;;;;;;6302678;22;20034;-56
2021/08/07 14:06:49;;;;;;;5.93;4.57;;;;;;;;;;6302448;22;20014;-54
2021/08/07 14:09:15;;;;;;;4.30;3.50;;;;;;;;;;6302509;22;20047;-57
2021/08/07 14:11:40;;;;;;;2.97;2.00;;;;;;;;;;6303067;22;20056;-57
2021/08/07 14:14:05;;;;;;;4.15;3.35;;;;;;;;;;6302685;22;19995;-56
2021/08/07 14:16:31;;;;;;;5.97;3.25;;;;;;;;;;6302793;22;20325;-56
2021/08/07 14:18:56;;;;;;;5.35;3.72;;;;;;;;;;6302605;22;20440;-56
2021/08/07 14:21:21;;;;;;;7.90;4.75;;;;;;;;;;6302338;22;20023;-56
2021/08/07 14:23:47;;;;;;;4.13;3.72;;;;;;;;;;6302600;22;20362;-55
2021/08/07 14:26:12;;;;;;;6.10;4.05;;;;;;;;;;6302265;22;20433;-57
2021/08/07 14:28:37;;;;;;;9.32;5.07;;;;;;;;;;6302675;22;20026;-54
2021/08/07 14:31:02;;;;;;;7.20;5.60;;;;;;;;;;6302031;22;20425;-56
2021/08/07 14:33:28;;;;;;;6.53;4.90;;;;;;;;;;6302325;22;20002;-55
2021/08/07 14:35:53;;;;;;;4.85;4.15;;;;;;;;;;6301921;22;20459;-54
2021/08/07 14:38:19;;;;;;;11.18;7.13;;;;;;;;;;6300251;22;19995;-55